Time,TemperatureF,DewpointF,PressureIn,WindDirection,WindDirectionDegrees,WindSpeedMPH,WindSpeedGustMPH,Humidity,HourlyPrecipIn,Conditions,Clouds,dailyrainin,SolarRadiationWatts/m^2,SoftwareType,DateUTC
2017-05-27 00:00:00,50.4,46.1,30.03,SW,218,6.0,12.0,85,0.00,CLR,CLR,0.00,0.0,WeatherDisplay:10.37,2017-05-27 07:00:00,
2017-05-27 00:01:00,50.3,46.0,30.03,SW,235,7.2,11.5,85,0.00,CLR,,0.00,0.0,WeatherDisplay:10.37,2017-05-27 07:01:00,
2017-05-27 00:06:00,50.3,46.0,30.03,SW,232,8.6,10.4,85,0.00,CLR,,0.00,0.0,WeatherDisplay:10.37,2017-05-27 07:06:00,
2017-05-27 00:11:00,50.2,46.2,30.03,SW,230,8.4,11.5,86,0.00,CLR,,0.00,0.0,WeatherDisplay:10.37,2017-05-27 07:11:00,
2017-05-27 00:16:00,50.1,46.1,30.03,SW,214,8.9,11.5,86,0.00,CLR,,0.00,0.0,WeatherDisplay:10.37,2017-05-27 07:16:00,
2017-05-27 00:21:00,50.1,46.1,30.03,SW,220,9.2,11.5,86,0.00,CLR,,0.00,0.0,WeatherDisplay:10.37,2017-05-27 07:21:00,
2017-05-27 00:26:00,50.0,46.0,30.03,SW,218,7.9,11.5,86,0.00,CLR,,0.00,0.0,WeatherDisplay:10.37,2017-05-27 07:26:00,
2017-05-27 00:31:00,50.0,46.0,30.03,South,190,6.3,10.4,86,0.00,CLR,,0.00,0.0,WeatherDisplay:10.37,2017-05-27 07:31:00,
2017-05-27 00:36:00,49.9,46.2,30.03,SSW,201,8.3,11.5,87,0.00,CLR,,0.00,0.0,WeatherDisplay:10.37,2017-05-27 07:36:00,
2017-05-27 00:41:00,49.9,46.2,30.03,WSW,237,8.5,11.5,87,0.00,CLR,,0.00,0.0,WeatherDisplay:10.37,2017-05-27 07:41:00,
2017-05-27 00:45:00,49.9,46.2,30.03,WSW,239,6.0,10.4,87,0.00,CLR,,0.00,0.0,WeatherDisplay:10.37,2017-05-27 07:45:00,
2017-05-27 00:50:00,49.9,46.2,30.03,SW,215,8.7,11.5,87,0.00,CLR,,0.00,0.0,WeatherDisplay:10.37,2017-05-27 07:50:00,
2017-05-27 00:55:00,49.9,46.2,30.03,SW,216,10.0,11.5,87,0.00,CLR,,0.00,0.0,WeatherDisplay:10.37,2017-05-27 07:55:00,
2017-05-27 01:00:00,49.9,46.2,30.03,SW,226,6.8,11.5,87,0.00,CLR,,0.00,0.0,WeatherDisplay:10.37,2017-05-27 08:00:00,
2017-05-27 01:05:00,49.9,46.2,30.03,SW,216,6.5,9.2,87,0.00,CLR,,0.00,0.0,WeatherDisplay:10.37,2017-05-27 08:05:00,
2017-05-27 01:10:00,49.9,46.2,30.03,SSW,204,8.3,10.4,87,0.00,CLR,,0.00,0.0,WeatherDisplay:10.37,2017-05-27 08:10:00,
2017-05-27 01:15:00,49.9,46.2,30.03,SSW,210,8.8,11.5,87,0.00,CLR,,0.00,0.0,WeatherDisplay:10.37,2017-05-27 08:15:00,
2017-05-27 01:20:00,49.9,46.2,30.03,SSW,211,6.6,9.2,87,0.00,CLR,,0.00,0.0,WeatherDisplay:10.37,2017-05-27 08:20:00,
2017-05-27 01:25:00,49.8,46.1,30.03,SW,215,7.5,10.4,87,0.00,CLR,,0.00,0.0,WeatherDisplay:10.37,2017-05-27 08:25:00,
2017-05-27 01:30:00,49.8,46.1,30.03,SSW,197,7.9,9.2,87,0.00,CLR,,0.00,0.0,WeatherDisplay:10.37,2017-05-27 08:30:00,
2017-05-27 01:35:00,49.8,46.1,30.03,SW,218,5.8,10.4,87,0.00,CLR,,0.00,0.0,WeatherDisplay:10.37,2017-05-27 08:35:00,
2017-05-27 01:40:00,49.7,45.7,30.03,SSW,212,8.6,11.0,86,0.00,CLR,,0.00,0.0,WeatherDisplay:10.37,2017-05-27 08:40:00,
2017-05-27 01:45:00,49.7,45.7,30.03,SW,221,4.6,10.4,86,0.00,CLR,,0.00,0.0,WeatherDisplay:10.37,2017-05-27 08:45:00,
2017-05-27 01:50:00,49.7,45.7,30.03,SSW,199,7.6,10.4,86,0.00,CLR,,0.00,0.0,WeatherDisplay:10.37,2017-05-27 08:50:00,
2017-05-27 01:55:00,49.7,45.7,30.03,SW,222,7.4,10.4,86,0.00,CLR,,0.00,0.0,WeatherDisplay:10.37,2017-05-27 08:55:00,
2017-05-27 02:00:00,49.7,45.7,30.03,SW,224,3.6,4.6,86,0.00,CLR,,0.00,0.0,WeatherDisplay:10.37,2017-05-27 09:00:00,
2017-05-27 02:05:00,49.6,45.6,30.03,SW,222,7.2,9.2,86,0.00,CLR,,0.00,0.0,WeatherDisplay:10.37,2017-05-27 09:05:00,
2017-05-27 02:10:00,49.6,45.3,30.03,SSW,203,3.2,3.5,85,0.00,CLR,,0.00,0.0,WeatherDisplay:10.37,2017-05-27 09:10:00,
2017-05-27 02:13:00,49.6,45.3,30.03,SSW,204,1.5,3.5,85,0.00,CLR,,0.00,0.0,WeatherDisplay:10.37,2017-05-27 09:13:00,
2017-05-27 02:18:00,49.6,45.6,30.03,SSW,195,3.4,3.5,86,0.00,CLR,,0.00,0.0,WeatherDisplay:10.37,2017-05-27 09:18:00,
2017-05-27 02:23:00,49.6,45.9,30.03,SSW,195,0.5,3.5,87,0.00,CLR,,0.00,0.0,WeatherDisplay:10.37,2017-05-27 09:23:00,
2017-05-27 02:28:00,49.6,45.9,30.03,SSW,195,2.3,3.5,87,0.00,CLR,,0.00,0.0,WeatherDisplay:10.37,2017-05-27 09:28:00,
2017-05-27 02:33:00,49.5,45.8,30.03,SSW,195,0.0,0.0,87,0.00,CLR,,0.00,0.0,WeatherDisplay:10.37,2017-05-27 09:33:00,
2017-05-27 02:38:00,49.5,45.8,30.03,SSW,195,0.0,0.0,87,0.00,CLR,,0.00,0.0,WeatherDisplay:10.37,2017-05-27 09:38:00,